createdAt,value
2022-09-24T00:01:27.764Z,38.13
2022-09-24T00:04:01.469Z,30.27
2022-09-24T00:06:30.555Z,24.75
2022-09-24T00:08:58.490Z,34.30
2022-09-24T00:11:27.895Z,33.78
2022-09-24T00:16:25.852Z,36.00
2022-09-24T00:18:53.932Z,34.47
2022-09-24T00:21:24.819Z,39.63
2022-09-24T00:24:02.914Z,22.20
2022-09-24T00:26:49.023Z,38.67
2022-09-24T00:29:25.276Z,41.00
2022-09-24T00:31:53.249Z,37.88
2022-09-24T00:34:20.858Z,37.20
2022-09-24T00:36:48.421Z,31.00
2022-09-24T00:39:15.800Z,33.15
2022-09-24T00:41:45.371Z,43.47
2022-09-24T00:44:46.545Z,33.58
2022-09-24T00:47:30.860Z,41.97
2022-09-24T00:50:23.684Z,39.08
2022-09-24T00:52:55.642Z,39.03
2022-09-24T00:55:24.641Z,45.38
2022-09-24T00:57:56.293Z,41.88
2022-09-24T01:00:23.420Z,20.98
2022-09-24T01:02:55.367Z,43.00
2022-09-24T01:05:22.649Z,41.83
2022-09-24T01:07:49.495Z,32.83
2022-09-24T01:10:38.050Z,42.65
2022-09-24T01:13:20.451Z,35.40
2022-09-24T01:15:57.647Z,42.00
2022-09-24T01:18:43.884Z,19.52
2022-09-24T01:21:25.463Z,41.38
2022-09-24T01:24:12.257Z,29.60
2022-09-24T01:26:56.587Z,40.50
2022-09-24T01:29:34.004Z,41.75
2022-09-24T01:32:20.330Z,38.92
2022-09-24T01:35:00.232Z,32.90
2022-09-24T01:37:31.448Z,40.63
2022-09-24T01:39:59.497Z,41.50
2022-09-24T01:42:29.640Z,35.28
2022-09-24T01:44:58.273Z,23.65
2022-09-24T01:47:39.572Z,38.90
2022-09-24T01:50:09.694Z,40.95
2022-09-24T01:52:53.654Z,38.33
2022-09-24T01:55:25.474Z,33.42
2022-09-24T01:58:14.349Z,42.83
2022-09-24T02:00:45.795Z,37.25
2022-09-24T02:03:21.295Z,31.35
2022-09-24T02:05:53.563Z,36.30
2022-09-24T02:08:23.502Z,40.33
2022-09-24T02:10:50.226Z,39.53
2022-09-24T02:13:24.687Z,44.97
2022-09-24T02:15:55.266Z,45.78
2022-09-24T02:18:26.977Z,48.05
2022-09-24T02:20:54.440Z,41.45
2022-09-24T02:23:22.506Z,31.40
2022-09-24T02:25:58.337Z,49.58
2022-09-24T02:28:26.313Z,42.28
2022-09-24T02:31:15.426Z,41.53
2022-09-24T02:34:04.181Z,47.40
2022-09-24T02:36:31.865Z,41.03
2022-09-24T02:38:59.376Z,45.33
2022-09-24T02:41:30.191Z,47.17
2022-09-24T02:43:57.195Z,49.55
2022-09-24T02:46:24.480Z,44.60
2022-09-24T02:48:51.501Z,46.40
2022-09-24T02:51:18.491Z,42.90
2022-09-24T02:53:45.345Z,50.63
2022-09-24T02:56:12.135Z,36.00
2022-09-24T02:58:38.938Z,23.02
2022-09-24T03:01:06.209Z,38.90
2022-09-24T03:03:33.348Z,32.28
2022-09-24T03:06:00.298Z,49.03
2022-09-24T03:08:27.331Z,48.47
2022-09-24T03:10:56.029Z,26.25
2022-09-24T03:13:26.114Z,40.22
2022-09-24T03:15:52.968Z,30.58
2022-09-24T03:18:19.849Z,28.35
2022-09-24T03:21:04.409Z,25.35
2022-09-24T03:23:31.399Z,42.13
2022-09-24T03:25:59.075Z,37.58
2022-09-24T03:28:26.080Z,44.72
2022-09-24T03:31:01.764Z,43.80
2022-09-24T03:33:33.859Z,40.22
2022-09-24T03:36:04.158Z,41.03
2022-09-24T03:38:31.382Z,41.85
2022-09-24T03:40:59.326Z,30.90
2022-09-24T03:43:26.902Z,29.55
2022-09-24T03:45:54.132Z,26.58
2022-09-24T03:48:22.765Z,30.58
2022-09-24T03:50:50.184Z,43.08
2022-09-24T03:53:18.194Z,40.45
2022-09-24T03:55:47.051Z,47.28
2022-09-24T03:58:15.775Z,42.65
2022-09-24T04:00:43.047Z,43.03
2022-09-24T04:03:10.798Z,25.40
2022-09-24T04:05:38.273Z,29.40
2022-09-24T04:08:06.133Z,34.00
2022-09-24T04:10:33.099Z,37.50
2022-09-24T04:13:00.042Z,39.63
2022-09-24T04:15:26.984Z,40.88
2022-09-24T04:17:56.291Z,43.83
2022-09-24T04:20:25.379Z,24.73
2022-09-24T04:22:55.273Z,39.30
2022-09-24T04:25:24.331Z,39.75
2022-09-24T04:27:59.576Z,34.85
2022-09-24T04:30:27.679Z,34.72
2022-09-24T04:32:54.742Z,30.83
2022-09-24T04:35:23.353Z,33.58
2022-09-24T04:37:50.571Z,37.20
2022-09-24T04:40:18.191Z,31.00
2022-09-24T04:42:46.370Z,32.28
2022-09-24T04:45:18.513Z,29.42
2022-09-24T04:47:46.331Z,29.48
2022-09-24T04:50:13.140Z,35.35
2022-09-24T04:52:40.063Z,33.20
2022-09-24T04:55:07.224Z,34.80
2022-09-24T04:57:35.922Z,30.15
2022-09-24T05:00:08.758Z,27.00
2022-09-24T05:02:35.661Z,30.80
2022-09-24T05:05:03.149Z,30.63
2022-09-24T05:07:29.964Z,19.95
2022-09-24T05:09:57.472Z,35.10
2022-09-24T05:12:24.398Z,33.70
2022-09-24T05:14:51.241Z,36.25
2022-09-24T05:17:18.946Z,29.25
2022-09-24T05:19:45.763Z,26.88
2022-09-24T05:22:12.679Z,34.38
2022-09-24T05:24:39.466Z,30.17
2022-09-24T05:27:09.736Z,32.88
2022-09-24T05:29:41.525Z,32.50
2022-09-24T05:32:10.738Z,32.05
2022-09-24T05:34:38.128Z,34.00
2022-09-24T05:37:05.145Z,24.02
2022-09-24T05:39:34.249Z,28.67
2022-09-24T05:42:03.699Z,35.20
2022-09-24T05:44:31.574Z,24.70
2022-09-24T05:46:58.705Z,36.20
2022-09-24T05:49:25.549Z,35.80
2022-09-24T05:51:52.452Z,37.33
2022-09-24T05:54:19.942Z,37.47
2022-09-24T05:56:47.269Z,37.53
2022-09-24T05:59:14.185Z,38.72
2022-09-24T06:01:41.120Z,39.00
2022-09-24T06:04:09.337Z,24.90
2022-09-24T06:06:36.292Z,36.83
2022-09-24T06:09:03.493Z,42.38
2022-09-24T06:11:39.820Z,34.95
2022-09-24T06:14:08.847Z,39.42
2022-09-24T06:16:36.204Z,37.63
2022-09-24T06:19:03.515Z,43.58
2022-09-24T06:21:30.463Z,27.45
2022-09-24T06:23:57.523Z,43.05
2022-09-24T06:26:26.202Z,35.63
2022-09-24T06:28:53.093Z,36.88
2022-09-24T06:31:20.028Z,45.33
2022-09-24T06:33:46.996Z,47.00
2022-09-24T06:36:14.730Z,38.17
2022-09-24T06:38:41.885Z,44.60
2022-09-24T06:41:10.171Z,30.85
2022-09-24T06:43:37.045Z,46.35
2022-09-24T06:46:04.982Z,50.08
2022-09-24T06:48:32.126Z,44.55
2022-09-24T06:50:59.200Z,31.38
2022-09-24T06:53:26.487Z,45.78
2022-09-24T06:55:58.722Z,43.45
2022-09-24T06:58:26.183Z,41.80
2022-09-24T07:00:58.993Z,45.08
2022-09-24T07:03:27.317Z,49.50
2022-09-24T07:05:54.584Z,36.10
2022-09-24T07:08:22.289Z,46.22
2022-09-24T07:10:49.756Z,34.78
2022-09-24T07:13:17.193Z,49.83
2022-09-24T07:15:44.929Z,48.13
2022-09-24T07:18:12.734Z,45.83
2022-09-24T07:20:40.054Z,50.78
2022-09-24T07:23:08.821Z,46.38
2022-09-24T07:25:37.087Z,46.28
2022-09-24T07:28:06.509Z,40.95
2022-09-24T07:33:01.405Z,50.08
2022-09-24T07:35:29.425Z,49.38
2022-09-24T07:38:07.636Z,53.17
2022-09-24T07:40:35.106Z,51.08
2022-09-24T07:43:02.808Z,50.60
2022-09-24T07:45:30.178Z,48.50
2022-09-24T07:47:58.748Z,50.38
2022-09-24T07:50:28.574Z,51.53
2022-09-24T07:52:55.832Z,50.90
2022-09-24T07:55:23.646Z,51.05
2022-09-24T07:57:52.054Z,47.83
2022-09-24T08:00:20.829Z,46.47
2022-09-24T08:02:48.516Z,49.90
2022-09-24T08:05:17.562Z,49.63
2022-09-24T08:07:55.523Z,52.63
2022-09-24T08:10:23.874Z,61.35
2022-09-24T08:12:50.784Z,59.67
2022-09-24T08:15:18.264Z,52.25
2022-09-24T08:17:45.126Z,53.55
2022-09-24T08:20:12.375Z,59.38
2022-09-24T08:22:39.263Z,62.00
2022-09-24T08:25:06.419Z,68.45
2022-09-24T08:27:36.249Z,63.78
2022-09-24T08:30:05.339Z,64.68
2022-09-24T08:32:32.273Z,70.97
2022-09-24T08:34:59.444Z,47.33
2022-09-24T08:37:28.750Z,53.22
2022-09-24T08:39:56.360Z,59.22
2022-09-24T08:42:34.675Z,57.70
2022-09-24T08:45:23.111Z,60.10
2022-09-24T08:47:57.872Z,68.88
2022-09-24T08:50:27.533Z,65.65
2022-09-24T08:53:06.711Z,60.25
2022-09-24T08:55:37.608Z,66.57
2022-09-24T08:58:10.645Z,51.42
2022-09-24T09:00:45.419Z,54.35
2022-09-24T09:03:23.838Z,58.28
2022-09-24T09:05:55.969Z,50.60
2022-09-24T09:09:01.221Z,50.08
2022-09-24T09:11:28.282Z,53.70
2022-09-24T09:14:04.700Z,42.00
2022-09-24T09:16:56.306Z,43.55
2022-09-24T09:19:28.181Z,42.72
2022-09-24T09:22:05.359Z,41.65
2022-09-24T09:24:39.047Z,35.63
2022-09-24T09:27:12.305Z,36.10
2022-09-24T09:29:39.160Z,35.80
2022-09-24T09:32:20.747Z,35.28
2022-09-24T09:35:15.405Z,38.30
2022-09-24T09:37:54.135Z,36.00
2022-09-24T09:40:32.083Z,30.65
2022-09-24T09:43:02.993Z,32.22
2022-09-24T09:45:48.388Z,28.50
2022-09-24T09:48:17.405Z,32.60
2022-09-24T09:51:05.041Z,25.80
2022-09-24T09:53:32.410Z,25.73
2022-09-24T09:56:00.808Z,27.67
2022-09-24T09:58:31.237Z,27.17
2022-09-24T10:01:10.897Z,23.92
2022-09-24T10:03:46.957Z,22.92
2022-09-24T10:06:28.658Z,25.52
2022-09-24T10:09:09.385Z,21.92
2022-09-24T10:11:36.195Z,21.60
2022-09-24T10:14:10.195Z,23.52
2022-09-24T10:16:43.093Z,21.88
2022-09-24T10:19:22.980Z,24.75
2022-09-24T10:21:51.690Z,23.45
2022-09-24T10:24:26.718Z,19.65
2022-09-24T10:26:54.963Z,22.05
2022-09-24T10:29:52.792Z,18.33
2022-09-24T10:32:26.410Z,14.00
2022-09-24T10:34:58.707Z,17.50
2022-09-24T10:37:26.561Z,21.23
2022-09-24T10:40:00.806Z,18.52
2022-09-24T10:42:29.760Z,13.32
2022-09-24T10:45:01.241Z,11.88
2022-09-24T10:47:47.394Z,11.57
2022-09-24T10:50:17.181Z,12.50
2022-09-24T10:52:50.004Z,12.05
2022-09-24T10:55:31.854Z,10.90
2022-09-24T10:58:23.188Z,11.65
2022-09-24T11:01:19.266Z,15.05
2022-09-24T11:04:06.842Z,10.40
2022-09-24T11:07:15.010Z,10.90
2022-09-24T11:10:06.357Z,9.55
2022-09-24T11:13:07.387Z,8.07
2022-09-24T11:15:54.136Z,11.70
2022-09-24T11:18:49.734Z,8.48
2022-09-24T11:21:44.610Z,9.57
2022-09-24T11:24:17.691Z,7.45
2022-09-24T11:27:03.151Z,5.60
2022-09-24T11:29:45.543Z,5.97
2022-09-24T11:32:15.349Z,7.72
2022-09-24T11:34:58.411Z,5.93
2022-09-24T11:37:48.912Z,6.25
2022-09-24T11:40:40.913Z,6.82
2022-09-24T11:43:35.348Z,10.20
2022-09-24T11:46:22.606Z,6.22
2022-09-24T11:49:11.707Z,8.05
2022-09-24T11:52:00.645Z,5.53
2022-09-24T11:54:36.339Z,7.70
2022-09-24T11:57:32.431Z,6.80
2022-09-24T12:00:13.853Z,3.30
2022-09-24T12:02:56.571Z,7.20
2022-09-24T12:05:45.042Z,7.82
2022-09-24T12:08:29.178Z,8.98
2022-09-24T12:11:09.831Z,6.20
2022-09-24T12:13:46.927Z,6.70
2022-09-24T12:16:17.952Z,4.93
2022-09-24T12:18:59.889Z,7.93
2022-09-24T12:21:34.991Z,7.57
2022-09-24T12:24:12.991Z,7.65
2022-09-24T12:26:42.964Z,6.85
2022-09-24T12:29:41.883Z,5.65
2022-09-24T12:32:42.721Z,5.13
2022-09-24T12:35:45.194Z,6.17
2022-09-24T12:38:33.898Z,6.05
2022-09-24T12:41:18.894Z,4.95
2022-09-24T12:43:58.255Z,5.93
2022-09-24T12:46:41.323Z,6.28
2022-09-24T12:49:26.846Z,6.22
2022-09-24T12:52:15.545Z,2.95
2022-09-24T12:54:43.995Z,4.05
2022-09-24T12:57:25.907Z,6.23
2022-09-24T12:59:59.099Z,6.63
2022-09-24T13:02:47.523Z,5.65
2022-09-24T13:05:40.959Z,3.45
2022-09-24T13:08:07.755Z,4.60
2022-09-24T13:10:36.607Z,3.85
2022-09-24T13:13:22.096Z,6.43
2022-09-24T13:16:04.543Z,6.30
2022-09-24T13:18:35.456Z,4.50
2022-09-24T13:21:08.364Z,3.83
2022-09-24T13:23:38.809Z,5.63
2022-09-24T13:26:08.075Z,4.53
2022-09-24T13:31:27.839Z,4.75
2022-09-24T13:34:10.140Z,3.67
2022-09-24T13:36:45.968Z,4.68
2022-09-24T13:39:24.490Z,2.67
2022-09-24T13:42:00.461Z,4.90
2022-09-24T13:44:40.492Z,5.60
2022-09-24T13:49:47.246Z,4.07
2022-09-24T13:52:24.964Z,4.40
2022-09-24T13:54:55.393Z,5.20
2022-09-24T13:57:25.797Z,4.75
2022-09-24T14:00:13.104Z,5.47
2022-09-24T14:02:40.364Z,5.00
2022-09-24T14:05:18.733Z,2.53
2022-09-24T14:08:17.119Z,3.05
2022-09-24T14:10:48.466Z,5.50
2022-09-24T14:13:22.706Z,4.18
2022-09-24T14:15:57.930Z,6.15
2022-09-24T14:18:27.671Z,2.92
2022-09-24T14:21:28.660Z,9.65
2022-09-24T14:24:12.450Z,4.97
2022-09-24T14:27:00.375Z,4.15
2022-09-24T14:29:33.236Z,7.55
2022-09-24T14:32:02.507Z,5.93
2022-09-24T14:37:17.696Z,5.35
2022-09-24T14:39:48.101Z,6.15
2022-09-24T14:42:28.489Z,4.90
2022-09-24T14:44:55.916Z,5.70
2022-09-24T14:47:31.603Z,5.63
2022-09-24T14:49:59.074Z,6.55
2022-09-24T14:52:37.540Z,8.15
2022-09-24T14:55:17.583Z,4.93
2022-09-24T15:00:21.708Z,4.78
2022-09-24T15:02:52.367Z,4.28
2022-09-24T15:05:24.740Z,4.20
2022-09-24T15:07:54.011Z,8.20
2022-09-24T15:10:22.859Z,4.22
2022-09-24T15:12:52.342Z,6.18
2022-09-24T15:15:22.084Z,9.52
2022-09-24T15:17:48.927Z,6.22
2022-09-24T15:20:15.892Z,5.53
2022-09-24T15:22:42.871Z,5.75
2022-09-24T15:25:12.798Z,4.80
2022-09-24T15:27:42.493Z,8.07
2022-09-24T15:30:18.694Z,8.65
2022-09-24T15:32:45.797Z,5.80
2022-09-24T15:35:15.128Z,8.77
2022-09-24T15:40:18.253Z,7.20
2022-09-24T15:42:45.136Z,5.65
2022-09-24T15:45:23.463Z,7.00
2022-09-24T15:47:51.762Z,7.07
2022-09-24T15:50:20.579Z,7.20
2022-09-24T15:52:56.805Z,5.63
2022-09-24T15:55:24.315Z,5.47
2022-09-24T15:57:51.512Z,8.43
2022-09-24T16:00:21.107Z,7.78
2022-09-24T16:02:50.454Z,5.70
2022-09-24T16:07:44.284Z,8.07
2022-09-24T16:10:13.492Z,7.25
2022-09-24T16:12:41.660Z,6.32
2022-09-24T16:15:13.395Z,6.43
2022-09-24T16:17:40.467Z,5.38
2022-09-24T16:20:08.440Z,7.97
2022-09-24T16:22:35.403Z,8.43
2022-09-24T16:25:02.221Z,8.00
2022-09-24T16:27:30.246Z,6.03
2022-09-24T16:29:57.038Z,8.30
2022-09-24T16:32:23.944Z,6.15
2022-09-24T16:34:50.778Z,6.25
2022-09-24T16:37:18.419Z,6.22
2022-09-24T16:39:45.946Z,8.35
2022-09-24T16:42:12.850Z,7.45
2022-09-24T16:44:39.924Z,6.03
2022-09-24T16:47:06.945Z,7.75
2022-09-24T16:49:34.919Z,6.72
2022-09-24T16:52:02.010Z,7.60
2022-09-24T16:54:32.722Z,6.93
2022-09-24T16:57:01.804Z,5.55
2022-09-24T16:59:28.818Z,6.68
2022-09-24T17:01:55.811Z,8.45
2022-09-24T17:04:22.819Z,4.55
2022-09-24T17:06:49.708Z,8.55
2022-09-24T17:09:35.139Z,6.72
2022-09-24T17:12:02.048Z,5.72
2022-09-24T17:14:29.143Z,6.93
2022-09-24T17:16:56.175Z,5.35
2022-09-24T17:19:23.311Z,5.75
2022-09-24T17:21:50.393Z,5.97
2022-09-24T17:24:21.494Z,8.95
2022-09-24T17:26:48.928Z,6.10
2022-09-24T17:29:15.914Z,7.07
2022-09-24T17:31:42.742Z,6.95
2022-09-24T17:34:12.482Z,8.13
2022-09-24T17:36:39.315Z,4.93
2022-09-24T17:39:06.564Z,6.10
2022-09-24T17:41:34.802Z,4.25
2022-09-24T17:44:01.888Z,9.35
2022-09-24T17:46:31.002Z,6.28
2022-09-24T17:48:59.961Z,6.85
2022-09-24T17:51:36.180Z,4.93
2022-09-24T17:54:15.778Z,4.75
2022-09-24T17:56:42.756Z,5.10
2022-09-24T17:59:11.912Z,3.33
2022-09-24T18:01:40.720Z,3.08
2022-09-24T18:04:12.537Z,3.70
2022-09-24T18:06:40.959Z,7.40
2022-09-24T18:09:09.146Z,2.93
2022-09-24T18:11:42.074Z,4.20
2022-09-24T18:14:14.742Z,6.63
2022-09-24T18:16:42.469Z,4.85
2022-09-24T18:19:10.974Z,6.30
2022-09-24T18:21:37.958Z,7.97
2022-09-24T18:24:05.061Z,9.32
2022-09-24T18:26:35.212Z,3.92
2022-09-24T18:29:06.232Z,4.18
2022-09-24T18:31:33.481Z,12.25
2022-09-24T18:34:06.100Z,4.10
2022-09-24T18:36:35.792Z,6.07
2022-09-24T18:39:04.087Z,4.95
2022-09-24T18:41:32.137Z,10.48
2022-09-24T18:43:59.505Z,9.20
2022-09-24T18:46:29.890Z,4.70
2022-09-24T18:48:58.511Z,7.50
2022-09-24T18:51:28.825Z,4.73
2022-09-24T18:54:04.870Z,6.85
2022-09-24T18:56:32.865Z,6.32
2022-09-24T18:59:48.665Z,6.85
2022-09-24T19:02:24.370Z,8.55
2022-09-24T19:04:52.128Z,5.90
2022-09-24T19:07:19.050Z,6.13
2022-09-24T19:09:45.950Z,6.82
2022-09-24T19:12:13.320Z,9.55
2022-09-24T19:14:40.172Z,6.82
2022-09-24T19:17:07.170Z,6.80
2022-09-24T19:19:34.884Z,4.43
2022-09-24T19:22:01.703Z,4.85
2022-09-24T19:24:28.565Z,4.28
2022-09-24T19:26:55.439Z,8.30
2022-09-24T19:29:22.588Z,7.45
2022-09-24T19:31:51.323Z,3.80
2022-09-24T19:34:18.229Z,6.05
2022-09-24T19:36:45.642Z,6.78
2022-09-24T19:39:15.110Z,5.07
2022-09-24T19:44:09.664Z,7.25
2022-09-24T19:46:38.872Z,8.13
2022-09-24T19:49:06.487Z,3.85
2022-09-24T19:51:35.714Z,3.92
2022-09-24T19:54:06.599Z,5.53
2022-09-24T19:56:34.313Z,4.63
2022-09-24T19:59:01.779Z,5.05
2022-09-24T20:01:30.789Z,3.92
2022-09-24T20:04:00.323Z,4.35
2022-09-24T20:09:02.119Z,5.35
2022-09-24T20:11:32.268Z,3.75
2022-09-24T20:13:59.337Z,4.90
2022-09-24T20:16:27.840Z,5.07
2022-09-24T20:18:57.930Z,5.90
2022-09-24T20:21:27.802Z,4.03
2022-09-24T20:23:57.605Z,4.82
2022-09-24T20:26:44.502Z,4.13
2022-09-24T20:29:13.670Z,4.80
2022-09-24T20:31:41.756Z,5.40
2022-09-24T20:34:09.336Z,5.38
2022-09-24T20:36:36.435Z,5.18
2022-09-24T20:39:04.067Z,4.60
2022-09-24T20:41:30.980Z,4.45
2022-09-24T20:43:57.991Z,5.40
2022-09-24T20:46:28.810Z,5.72
2022-09-24T20:49:00.698Z,3.85
2022-09-24T20:51:29.415Z,6.60
2022-09-24T20:53:58.361Z,3.55
2022-09-24T20:56:26.750Z,6.30
2022-09-24T20:58:54.041Z,6.53
2022-09-24T21:01:21.856Z,7.22
2022-09-24T21:03:51.917Z,5.05
2022-09-24T21:06:22.922Z,5.47
2022-09-24T21:08:50.701Z,5.68
2022-09-24T21:11:24.020Z,4.85
2022-09-24T21:13:53.091Z,5.65
2022-09-24T21:16:22.146Z,3.97
2022-09-24T21:18:50.382Z,5.00
2022-09-24T21:21:19.701Z,3.03
2022-09-24T21:26:14.779Z,4.35
2022-09-24T21:28:43.369Z,3.63
2022-09-24T21:31:10.473Z,4.95
2022-09-24T21:33:37.510Z,10.18
2022-09-24T21:36:09.528Z,5.13
2022-09-24T21:38:37.196Z,5.85
2022-09-24T21:41:08.405Z,7.00
2022-09-24T21:43:35.896Z,5.25
2022-09-24T21:46:05.461Z,4.85
2022-09-24T21:48:34.152Z,6.13
2022-09-24T21:51:09.898Z,4.05
2022-09-24T21:53:37.966Z,4.90
2022-09-24T21:56:06.282Z,4.07
2022-09-24T21:58:33.181Z,5.20
2022-09-24T22:01:04.979Z,5.90
2022-09-24T22:03:32.809Z,4.45
2022-09-24T22:06:03.445Z,4.50
2022-09-24T22:08:31.844Z,7.88
2022-09-24T22:11:10.965Z,5.70
2022-09-24T22:13:38.805Z,6.95
2022-09-24T22:16:08.109Z,4.78
2022-09-24T22:18:36.236Z,6.30
2022-09-24T22:21:08.879Z,5.18
2022-09-24T22:23:36.204Z,6.75
2022-09-24T22:26:03.079Z,5.00
2022-09-24T22:28:30.139Z,4.93
2022-09-24T22:30:59.398Z,4.00
2022-09-24T22:36:14.270Z,4.55
2022-09-24T22:38:41.188Z,3.10
2022-09-24T22:41:10.834Z,7.43
2022-09-24T22:43:38.784Z,5.03
2022-09-24T22:46:08.602Z,4.85
2022-09-24T22:48:35.734Z,6.25
2022-09-24T22:51:03.781Z,4.82
2022-09-24T22:53:37.208Z,4.97
2022-09-24T22:56:07.728Z,4.88
2022-09-24T22:58:35.512Z,4.45
2022-09-24T23:01:10.352Z,5.28
2022-09-24T23:03:37.830Z,6.00
2022-09-24T23:06:06.245Z,4.30
2022-09-24T23:08:37.025Z,6.10
2022-09-24T23:11:15.453Z,4.65
2022-09-24T23:13:44.564Z,4.03
2022-09-24T23:16:14.435Z,5.65
2022-09-24T23:18:43.257Z,4.43
2022-09-24T23:21:12.785Z,5.95
2022-09-24T23:23:40.049Z,4.72
2022-09-24T23:26:16.164Z,7.00
2022-09-24T23:28:45.058Z,4.30
2022-09-24T23:31:14.122Z,5.20
2022-09-24T23:33:42.377Z,7.35
2022-09-24T23:36:11.798Z,5.72
2022-09-24T23:41:09.252Z,5.03
2022-09-24T23:43:36.179Z,4.25
2022-09-24T23:46:04.249Z,5.47
2022-09-24T23:48:31.607Z,6.55
2022-09-24T23:50:58.781Z,6.30
2022-09-24T23:53:25.828Z,7.75
2022-09-24T23:55:54.144Z,6.45
2022-09-24T23:58:23.113Z,5.90
